sensor_id;sensor_type;location;lat;lon;timestamp;temperature;humidity
80579;SHT31;69939;52.402;6.608;2024-01-30T00:01:39;7.95;92.53
80579;SHT31;69939;52.402;6.608;2024-01-30T00:04:20;7.97;92.47
80579;SHT31;69939;52.402;6.608;2024-01-30T00:06:56;7.93;92.30
80579;SHT31;69939;52.402;6.608;2024-01-30T00:09:57;7.90;92.66
80579;SHT31;69939;52.402;6.608;2024-01-30T00:12:34;7.82;92.68
80579;SHT31;69939;52.402;6.608;2024-01-30T00:15:10;7.86;92.81
80579;SHT31;69939;52.402;6.608;2024-01-30T00:17:50;7.82;92.58
80579;SHT31;69939;52.402;6.608;2024-01-30T00:20:27;7.75;92.65
80579;SHT31;69939;52.402;6.608;2024-01-30T00:23:09;7.68;92.73
80579;SHT31;69939;52.402;6.608;2024-01-30T00:25:49;7.62;92.78
80579;SHT31;69939;52.402;6.608;2024-01-30T00:28:31;7.55;93.18
80579;SHT31;69939;52.402;6.608;2024-01-30T00:31:00;7.48;93.34
80579;SHT31;69939;52.402;6.608;2024-01-30T00:33:36;7.43;93.50
80579;SHT31;69939;52.402;6.608;2024-01-30T00:36:10;7.35;93.66
80579;SHT31;69939;52.402;6.608;2024-01-30T00:38:54;7.28;93.84
80579;SHT31;69939;52.402;6.608;2024-01-30T00:41:35;7.21;94.22
80579;SHT31;69939;52.402;6.608;2024-01-30T00:44:12;7.14;93.99
80579;SHT31;69939;52.402;6.608;2024-01-30T00:46:48;7.07;94.30
80579;SHT31;69939;52.402;6.608;2024-01-30T00:49:18;7.07;94.43
80579;SHT31;69939;52.402;6.608;2024-01-30T00:51:52;7.01;94.39
80579;SHT31;69939;52.402;6.608;2024-01-30T00:54:38;6.97;94.32
80579;SHT31;69939;52.402;6.608;2024-01-30T00:57:14;6.97;94.52
80579;SHT31;69939;52.402;6.608;2024-01-30T00:59:45;6.89;94.50
80579;SHT31;69939;52.402;6.608;2024-01-30T01:02:27;6.86;95.09
80579;SHT31;69939;52.402;6.608;2024-01-30T01:05:14;6.83;95.10
80579;SHT31;69939;52.402;6.608;2024-01-30T01:07:48;6.86;95.12
80579;SHT31;69939;52.402;6.608;2024-01-30T01:10:28;6.85;95.37
80579;SHT31;69939;52.402;6.608;2024-01-30T01:13:07;6.82;95.21
80579;SHT31;69939;52.402;6.608;2024-01-30T01:15:38;6.79;94.94
80579;SHT31;69939;52.402;6.608;2024-01-30T01:18:10;6.68;95.09
80579;SHT31;69939;52.402;6.608;2024-01-30T01:20:43;6.62;95.37
80579;SHT31;69939;52.402;6.608;2024-01-30T01:23:15;6.55;95.32
80579;SHT31;69939;52.402;6.608;2024-01-30T01:25:49;6.46;95.68
80579;SHT31;69939;52.402;6.608;2024-01-30T01:28:24;6.45;95.92
80579;SHT31;69939;52.402;6.608;2024-01-30T01:31:05;6.42;96.05
80579;SHT31;69939;52.402;6.608;2024-01-30T01:33:37;6.44;96.01
80579;SHT31;69939;52.402;6.608;2024-01-30T01:36:08;6.42;95.96
80579;SHT31;69939;52.402;6.608;2024-01-30T01:38:40;6.40;95.93
80579;SHT31;69939;52.402;6.608;2024-01-30T01:41:11;6.31;95.71
80579;SHT31;69939;52.402;6.608;2024-01-30T01:43:47;6.30;96.07
80579;SHT31;69939;52.402;6.608;2024-01-30T01:46:19;6.30;96.42
80579;SHT31;69939;52.402;6.608;2024-01-30T01:48:52;6.30;96.27
80579;SHT31;69939;52.402;6.608;2024-01-30T01:51:27;6.28;96.52
80579;SHT31;69939;52.402;6.608;2024-01-30T01:54:03;6.30;96.45
80579;SHT31;69939;52.402;6.608;2024-01-30T01:56:41;6.35;96.69
80579;SHT31;69939;52.402;6.608;2024-01-30T01:59:20;6.34;96.40
80579;SHT31;69939;52.402;6.608;2024-01-30T02:01:54;6.34;96.47
80579;SHT31;69939;52.402;6.608;2024-01-30T02:04:27;6.30;96.09
80579;SHT31;69939;52.402;6.608;2024-01-30T02:07:02;6.30;96.26
80579;SHT31;69939;52.402;6.608;2024-01-30T02:09:36;6.32;96.29
80579;SHT31;69939;52.402;6.608;2024-01-30T02:12:15;6.34;96.40
80579;SHT31;69939;52.402;6.608;2024-01-30T02:14:53;6.38;96.47
80579;SHT31;69939;52.402;6.608;2024-01-30T02:17:35;6.48;96.80
80579;SHT31;69939;52.402;6.608;2024-01-30T02:20:19;6.62;96.68
80579;SHT31;69939;52.402;6.608;2024-01-30T02:22:59;6.78;96.36
80579;SHT31;69939;52.402;6.608;2024-01-30T02:25:40;6.82;95.72
80579;SHT31;69939;52.402;6.608;2024-01-30T02:28:11;6.80;95.84
80579;SHT31;69939;52.402;6.608;2024-01-30T02:30:43;6.83;95.70
80579;SHT31;69939;52.402;6.608;2024-01-30T02:33:17;6.82;95.67
80579;SHT31;69939;52.402;6.608;2024-01-30T02:36:02;6.80;95.80
80579;SHT31;69939;52.402;6.608;2024-01-30T02:38:36;6.86;95.91
80579;SHT31;69939;52.402;6.608;2024-01-30T02:41:13;6.86;95.49
80579;SHT31;69939;52.402;6.608;2024-01-30T02:43:47;6.83;95.37
80579;SHT31;69939;52.402;6.608;2024-01-30T02:46:30;6.78;95.50
80579;SHT31;69939;52.402;6.608;2024-01-30T02:49:12;6.79;95.58
80579;SHT31;69939;52.402;6.608;2024-01-30T02:51:48;6.73;95.60
80579;SHT31;69939;52.402;6.608;2024-01-30T02:54:23;6.69;95.56
80579;SHT31;69939;52.402;6.608;2024-01-30T02:56:56;6.75;95.87
80579;SHT31;69939;52.402;6.608;2024-01-30T02:59:31;6.72;95.78
80579;SHT31;69939;52.402;6.608;2024-01-30T03:02:06;6.69;95.57
80579;SHT31;69939;52.402;6.608;2024-01-30T03:04:41;6.67;95.53
80579;SHT31;69939;52.402;6.608;2024-01-30T03:07:13;6.61;95.96
80579;SHT31;69939;52.402;6.608;2024-01-30T03:10:07;6.59;95.85
80579;SHT31;69939;52.402;6.608;2024-01-30T03:12:38;6.62;96.01
80579;SHT31;69939;52.402;6.608;2024-01-30T03:15:13;6.64;96.38
80579;SHT31;69939;52.402;6.608;2024-01-30T03:17:50;6.67;96.01
80579;SHT31;69939;52.402;6.608;2024-01-30T03:20:23;6.68;95.86
80579;SHT31;69939;52.402;6.608;2024-01-30T03:22:55;6.64;96.11
80579;SHT31;69939;52.402;6.608;2024-01-30T03:25:37;6.62;95.85
80579;SHT31;69939;52.402;6.608;2024-01-30T03:28:16;6.62;96.14
80579;SHT31;69939;52.402;6.608;2024-01-30T03:30:47;6.58;95.81
80579;SHT31;69939;52.402;6.608;2024-01-30T03:33:19;6.55;96.11
80579;SHT31;69939;52.402;6.608;2024-01-30T03:35:55;6.52;96.33
80579;SHT31;69939;52.402;6.608;2024-01-30T03:38:26;6.56;96.15
80579;SHT31;69939;52.402;6.608;2024-01-30T03:41:01;6.52;96.01
80579;SHT31;69939;52.402;6.608;2024-01-30T03:43:36;6.53;96.01
80579;SHT31;69939;52.402;6.608;2024-01-30T03:46:11;6.51;96.33
80579;SHT31;69939;52.402;6.608;2024-01-30T03:48:44;6.46;96.13
80579;SHT31;69939;52.402;6.608;2024-01-30T03:51:18;6.51;96.43
80579;SHT31;69939;52.402;6.608;2024-01-30T03:53:50;6.53;96.40
80579;SHT31;69939;52.402;6.608;2024-01-30T03:56:27;6.52;96.36
80579;SHT31;69939;52.402;6.608;2024-01-30T03:59:02;6.58;96.31
80579;SHT31;69939;52.402;6.608;2024-01-30T04:01:32;6.55;96.28
80579;SHT31;69939;52.402;6.608;2024-01-30T04:04:08;6.52;96.16
80579;SHT31;69939;52.402;6.608;2024-01-30T04:06:42;6.45;96.26
80579;SHT31;69939;52.402;6.608;2024-01-30T04:09:15;6.45;96.27
80579;SHT31;69939;52.402;6.608;2024-01-30T04:11:47;6.42;96.05
80579;SHT31;69939;52.402;6.608;2024-01-30T04:14:22;6.38;96.01
80579;SHT31;69939;52.402;6.608;2024-01-30T04:16:53;6.31;96.35
80579;SHT31;69939;52.402;6.608;2024-01-30T04:19:30;6.32;96.81
80579;SHT31;69939;52.402;6.608;2024-01-30T04:22:04;6.40;96.92
80579;SHT31;69939;52.402;6.608;2024-01-30T04:24:35;6.53;96.91
80579;SHT31;69939;52.402;6.608;2024-01-30T04:27:09;6.61;96.43
80579;SHT31;69939;52.402;6.608;2024-01-30T04:29:51;6.67;96.22
80579;SHT31;69939;52.402;6.608;2024-01-30T04:38:38;6.80;95.93
80579;SHT31;69939;52.402;6.608;2024-01-30T04:41:17;6.86;95.78
80579;SHT31;69939;52.402;6.608;2024-01-30T04:43:51;6.92;95.52
80579;SHT31;69939;52.402;6.608;2024-01-30T04:46:27;6.93;95.51
80579;SHT31;69939;52.402;6.608;2024-01-30T04:48:58;6.90;95.36
80579;SHT31;69939;52.402;6.608;2024-01-30T04:51:43;6.93;95.52
80579;SHT31;69939;52.402;6.608;2024-01-30T04:54:22;6.99;95.41
80579;SHT31;69939;52.402;6.608;2024-01-30T04:57:08;7.08;95.01
80579;SHT31;69939;52.402;6.608;2024-01-30T04:59:42;7.13;94.72
80579;SHT31;69939;52.402;6.608;2024-01-30T05:02:31;7.18;94.62
80579;SHT31;69939;52.402;6.608;2024-01-30T05:05:23;7.20;94.50
80579;SHT31;69939;52.402;6.608;2024-01-30T05:08:04;7.26;94.42
80579;SHT31;69939;52.402;6.608;2024-01-30T05:10:39;7.24;94.23
80579;SHT31;69939;52.402;6.608;2024-01-30T05:13:14;7.28;94.22
80579;SHT31;69939;52.402;6.608;2024-01-30T05:15:51;7.28;94.27
80579;SHT31;69939;52.402;6.608;2024-01-30T05:18:23;7.28;94.17
80579;SHT31;69939;52.402;6.608;2024-01-30T05:21:21;7.28;94.16
80579;SHT31;69939;52.402;6.608;2024-01-30T05:24:02;7.27;94.11
80579;SHT31;69939;52.402;6.608;2024-01-30T05:26:38;7.28;94.20
80579;SHT31;69939;52.402;6.608;2024-01-30T05:29:13;7.27;93.96
80579;SHT31;69939;52.402;6.608;2024-01-30T05:31:51;7.28;94.19
80579;SHT31;69939;52.402;6.608;2024-01-30T05:34:26;7.34;94.09
80579;SHT31;69939;52.402;6.608;2024-01-30T05:37:04;7.35;94.16
80579;SHT31;69939;52.402;6.608;2024-01-30T05:39:48;7.44;93.87
80579;SHT31;69939;52.402;6.608;2024-01-30T05:42:24;7.52;93.56
80579;SHT31;69939;52.402;6.608;2024-01-30T05:44:58;7.58;93.44
80579;SHT31;69939;52.402;6.608;2024-01-30T05:47:36;7.56;93.54
80579;SHT31;69939;52.402;6.608;2024-01-30T05:50:09;7.58;93.43
80579;SHT31;69939;52.402;6.608;2024-01-30T05:52:40;7.69;93.15
80579;SHT31;69939;52.402;6.608;2024-01-30T05:55:27;7.72;93.12
80579;SHT31;69939;52.402;6.608;2024-01-30T05:58:01;7.72;93.18
80579;SHT31;69939;52.402;6.608;2024-01-30T06:00:58;7.78;93.00
80579;SHT31;69939;52.402;6.608;2024-01-30T06:14:07;7.87;92.90
80579;SHT31;69939;52.402;6.608;2024-01-30T06:16:40;7.86;92.96
80579;SHT31;69939;52.402;6.608;2024-01-30T06:19:22;7.93;92.86
80579;SHT31;69939;52.402;6.608;2024-01-30T06:21:52;7.93;92.98
80579;SHT31;69939;52.402;6.608;2024-01-30T06:24:25;7.89;92.99
80579;SHT31;69939;52.402;6.608;2024-01-30T06:27:04;7.95;93.02
80579;SHT31;69939;52.402;6.608;2024-01-30T06:29:33;8.00;92.87
80579;SHT31;69939;52.402;6.608;2024-01-30T06:32:06;8.02;92.87
80579;SHT31;69939;52.402;6.608;2024-01-30T06:34:40;8.07;92.66
80579;SHT31;69939;52.402;6.608;2024-01-30T06:37:16;8.06;92.65
80579;SHT31;69939;52.402;6.608;2024-01-30T06:39:45;8.10;92.49
80579;SHT31;69939;52.402;6.608;2024-01-30T06:42:19;8.12;92.69
80579;SHT31;69939;52.402;6.608;2024-01-30T06:44:50;8.10;92.76
80579;SHT31;69939;52.402;6.608;2024-01-30T06:47:20;8.13;92.61
80579;SHT31;69939;52.402;6.608;2024-01-30T06:49:53;8.14;92.59
80579;SHT31;69939;52.402;6.608;2024-01-30T06:52:23;8.16;92.50
80579;SHT31;69939;52.402;6.608;2024-01-30T06:54:53;8.14;92.50
80579;SHT31;69939;52.402;6.608;2024-01-30T06:57:22;8.17;92.49
80579;SHT31;69939;52.402;6.608;2024-01-30T06:59:56;8.16;92.51
80579;SHT31;69939;52.402;6.608;2024-01-30T07:02:26;8.17;92.61
80579;SHT31;69939;52.402;6.608;2024-01-30T07:04:59;8.16;92.67
80579;SHT31;69939;52.402;6.608;2024-01-30T07:07:28;8.16;92.62
80579;SHT31;69939;52.402;6.608;2024-01-30T07:09:58;8.24;92.49
80579;SHT31;69939;52.402;6.608;2024-01-30T07:12:30;8.27;92.41
80579;SHT31;69939;52.402;6.608;2024-01-30T07:15:00;8.26;92.51
80579;SHT31;69939;52.402;6.608;2024-01-30T07:17:33;8.24;92.48
80579;SHT31;69939;52.402;6.608;2024-01-30T07:20:08;8.22;92.68
80579;SHT31;69939;52.402;6.608;2024-01-30T07:22:38;8.22;92.63
80579;SHT31;69939;52.402;6.608;2024-01-30T07:25:09;8.26;92.57
80579;SHT31;69939;52.402;6.608;2024-01-30T07:27:38;8.29;92.57
80579;SHT31;69939;52.402;6.608;2024-01-30T07:30:08;8.22;92.79
80579;SHT31;69939;52.402;6.608;2024-01-30T07:32:38;8.29;92.65
80579;SHT31;69939;52.402;6.608;2024-01-30T07:35:10;8.26;92.72
80579;SHT31;69939;52.402;6.608;2024-01-30T07:37:40;8.29;92.46
80579;SHT31;69939;52.402;6.608;2024-01-30T07:40:11;8.30;92.66
80579;SHT31;69939;52.402;6.608;2024-01-30T07:42:42;8.27;92.62
80579;SHT31;69939;52.402;6.608;2024-01-30T07:45:12;8.30;92.69
80579;SHT31;69939;52.402;6.608;2024-01-30T07:47:41;8.29;92.92
80579;SHT31;69939;52.402;6.608;2024-01-30T07:50:18;8.31;92.61
80579;SHT31;69939;52.402;6.608;2024-01-30T07:52:48;8.36;92.80
80579;SHT31;69939;52.402;6.608;2024-01-30T07:55:20;8.40;92.70
80579;SHT31;69939;52.402;6.608;2024-01-30T07:57:53;8.44;92.49
80579;SHT31;69939;52.402;6.608;2024-01-30T08:00:23;8.48;92.40
80579;SHT31;69939;52.402;6.608;2024-01-30T08:02:52;8.48;92.48
80579;SHT31;69939;52.402;6.608;2024-01-30T08:05:27;8.55;92.07
80579;SHT31;69939;52.402;6.608;2024-01-30T08:07:56;8.64;92.01
80579;SHT31;69939;52.402;6.608;2024-01-30T08:10:26;8.64;92.12
80579;SHT31;69939;52.402;6.608;2024-01-30T08:12:55;8.64;92.01
80579;SHT31;69939;52.402;6.608;2024-01-30T08:15:24;8.65;92.23
80579;SHT31;69939;52.402;6.608;2024-01-30T08:17:53;8.65;92.16
80579;SHT31;69939;52.402;6.608;2024-01-30T08:20:27;8.72;91.92
80579;SHT31;69939;52.402;6.608;2024-01-30T08:22:56;8.78;91.95
80579;SHT31;69939;52.402;6.608;2024-01-30T08:25:26;8.83;91.93
80579;SHT31;69939;52.402;6.608;2024-01-30T08:27:55;8.96;91.49
80579;SHT31;69939;52.402;6.608;2024-01-30T08:30:25;9.02;91.42
80579;SHT31;69939;52.402;6.608;2024-01-30T08:32:54;9.09;91.22
80579;SHT31;69939;52.402;6.608;2024-01-30T08:35:26;9.20;90.97
80579;SHT31;69939;52.402;6.608;2024-01-30T08:37:59;9.20;91.13
80579;SHT31;69939;52.402;6.608;2024-01-30T08:40:29;9.20;91.20
80579;SHT31;69939;52.402;6.608;2024-01-30T08:42:59;9.24;90.97
80579;SHT31;69939;52.402;6.608;2024-01-30T08:45:29;9.29;90.80
80579;SHT31;69939;52.402;6.608;2024-01-30T08:47:59;9.30;90.84
80579;SHT31;69939;52.402;6.608;2024-01-30T08:50:34;9.29;91.04
80579;SHT31;69939;52.402;6.608;2024-01-30T08:55:39;9.33;90.65
80579;SHT31;69939;52.402;6.608;2024-01-30T08:58:08;9.36;90.85
80579;SHT31;69939;52.402;6.608;2024-01-30T09:00:37;9.36;90.84
80579;SHT31;69939;52.402;6.608;2024-01-30T09:03:07;9.46;90.38
80579;SHT31;69939;52.402;6.608;2024-01-30T09:05:40;9.38;90.85
80579;SHT31;69939;52.402;6.608;2024-01-30T09:08:09;9.44;90.70
80579;SHT31;69939;52.402;6.608;2024-01-30T09:10:41;9.46;90.43
80579;SHT31;69939;52.402;6.608;2024-01-30T09:13:10;9.48;90.50
80579;SHT31;69939;52.402;6.608;2024-01-30T09:15:41;9.52;90.46
80579;SHT31;69939;52.402;6.608;2024-01-30T09:18:11;9.57;90.55
80579;SHT31;69939;52.402;6.608;2024-01-30T09:20:43;9.59;90.55
80579;SHT31;69939;52.402;6.608;2024-01-30T09:23:13;9.68;90.31
80579;SHT31;69939;52.402;6.608;2024-01-30T09:25:44;9.85;90.69
80579;SHT31;69939;52.402;6.608;2024-01-30T09:28:13;9.94;90.16
80579;SHT31;69939;52.402;6.608;2024-01-30T09:30:43;9.95;89.70
80579;SHT31;69939;52.402;6.608;2024-01-30T09:33:12;9.89;89.95
80579;SHT31;69939;52.402;6.608;2024-01-30T10:13:14;10.57;89.11
80579;SHT31;69939;52.402;6.608;2024-01-30T10:15:49;10.59;88.92
80579;SHT31;69939;52.402;6.608;2024-01-30T10:18:19;10.67;89.39
80579;SHT31;69939;52.402;6.608;2024-01-30T10:20:48;10.75;89.52
80579;SHT31;69939;52.402;6.608;2024-01-30T10:23:18;10.72;89.13
80579;SHT31;69939;52.402;6.608;2024-01-30T10:25:54;10.90;88.78
80579;SHT31;69939;52.402;6.608;2024-01-30T10:28:23;10.82;88.82
80579;SHT31;69939;52.402;6.608;2024-01-30T10:30:59;10.98;88.63
80579;SHT31;69939;52.402;6.608;2024-01-30T10:33:29;11.01;88.73
80579;SHT31;69939;52.402;6.608;2024-01-30T10:36:00;11.23;88.43
80579;SHT31;69939;52.402;6.608;2024-01-30T10:38:32;11.16;88.11
80579;SHT31;69939;52.402;6.608;2024-01-30T10:41:05;11.19;88.59
80579;SHT31;69939;52.402;6.608;2024-01-30T10:43:41;11.30;88.33
80579;SHT31;69939;52.402;6.608;2024-01-30T10:46:18;11.28;89.10
80579;SHT31;69939;52.402;6.608;2024-01-30T10:48:53;11.32;88.86
80579;SHT31;69939;52.402;6.608;2024-01-30T10:51:27;11.35;88.87
80579;SHT31;69939;52.402;6.608;2024-01-30T10:53:57;11.35;88.46
80579;SHT31;69939;52.402;6.608;2024-01-30T10:56:28;11.40;88.58
80579;SHT31;69939;52.402;6.608;2024-01-30T10:58:59;11.47;88.62
80579;SHT31;69939;52.402;6.608;2024-01-30T11:01:32;11.52;88.68
80579;SHT31;69939;52.402;6.608;2024-01-30T11:04:02;11.44;88.42
80579;SHT31;69939;52.402;6.608;2024-01-30T11:06:31;11.57;88.35
80579;SHT31;69939;52.402;6.608;2024-01-30T11:09:01;11.60;88.36
80579;SHT31;69939;52.402;6.608;2024-01-30T11:11:48;11.69;88.21
80579;SHT31;69939;52.402;6.608;2024-01-30T11:14:23;11.67;88.38
80579;SHT31;69939;52.402;6.608;2024-01-30T11:16:57;11.62;88.08
80579;SHT31;69939;52.402;6.608;2024-01-30T11:19:32;11.63;88.04
80579;SHT31;69939;52.402;6.608;2024-01-30T11:22:02;11.74;88.18
80579;SHT31;69939;52.402;6.608;2024-01-30T11:24:39;11.63;88.19
80579;SHT31;69939;52.402;6.608;2024-01-30T11:27:15;11.59;88.50
80579;SHT31;69939;52.402;6.608;2024-01-30T11:29:50;11.56;88.46
80579;SHT31;69939;52.402;6.608;2024-01-30T11:32:22;11.49;88.47
80579;SHT31;69939;52.402;6.608;2024-01-30T11:34:52;11.50;88.53
80579;SHT31;69939;52.402;6.608;2024-01-30T11:37:25;11.46;88.38
80579;SHT31;69939;52.402;6.608;2024-01-30T11:39:55;11.44;88.46
80579;SHT31;69939;52.402;6.608;2024-01-30T11:42:38;11.43;88.55
80579;SHT31;69939;52.402;6.608;2024-01-30T11:45:09;11.44;88.48
80579;SHT31;69939;52.402;6.608;2024-01-30T11:47:38;11.44;88.72
80579;SHT31;69939;52.402;6.608;2024-01-30T11:50:09;11.49;88.82
80579;SHT31;69939;52.402;6.608;2024-01-30T11:52:39;11.52;88.44
80579;SHT31;69939;52.402;6.608;2024-01-30T11:55:09;11.56;88.27
80579;SHT31;69939;52.402;6.608;2024-01-30T11:57:44;11.57;88.13
80579;SHT31;69939;52.402;6.608;2024-01-30T12:00:15;11.59;87.57
80579;SHT31;69939;52.402;6.608;2024-01-30T12:02:49;11.66;87.69
80579;SHT31;69939;52.402;6.608;2024-01-30T12:05:21;11.74;87.46
80579;SHT31;69939;52.402;6.608;2024-01-30T12:07:52;11.81;86.13
80579;SHT31;69939;52.402;6.608;2024-01-30T12:10:24;11.97;86.06
80579;SHT31;69939;52.402;6.608;2024-01-30T12:12:58;12.04;85.94
80579;SHT31;69939;52.402;6.608;2024-01-30T12:15:28;11.99;84.96
80579;SHT31;69939;52.402;6.608;2024-01-30T12:18:04;11.97;84.90
80579;SHT31;69939;52.402;6.608;2024-01-30T12:20:34;12.04;84.93
80579;SHT31;69939;52.402;6.608;2024-01-30T12:23:04;12.05;84.99
80579;SHT31;69939;52.402;6.608;2024-01-30T12:25:33;12.14;84.64
80579;SHT31;69939;52.402;6.608;2024-01-30T12:28:06;12.10;84.74
80579;SHT31;69939;52.402;6.608;2024-01-30T12:30:35;12.18;84.90
80579;SHT31;69939;52.402;6.608;2024-01-30T12:33:05;12.15;84.91
80579;SHT31;69939;52.402;6.608;2024-01-30T12:35:35;12.11;84.77
80579;SHT31;69939;52.402;6.608;2024-01-30T12:38:05;12.04;85.06
80579;SHT31;69939;52.402;6.608;2024-01-30T12:40:41;12.01;85.18
80579;SHT31;69939;52.402;6.608;2024-01-30T12:43:13;12.08;84.70
80579;SHT31;69939;52.402;6.608;2024-01-30T12:45:43;12.21;84.25
80579;SHT31;69939;52.402;6.608;2024-01-30T12:48:12;12.34;83.63
80579;SHT31;69939;52.402;6.608;2024-01-30T12:50:42;12.29;83.40
80579;SHT31;69939;52.402;6.608;2024-01-30T12:53:12;12.42;82.56
80579;SHT31;69939;52.402;6.608;2024-01-30T12:55:42;12.45;79.82
80579;SHT31;69939;52.402;6.608;2024-01-30T12:58:14;12.43;78.40
80579;SHT31;69939;52.402;6.608;2024-01-30T13:00:43;12.75;77.81
80579;SHT31;69939;52.402;6.608;2024-01-30T13:03:13;12.66;76.48
80579;SHT31;69939;52.402;6.608;2024-01-30T13:05:42;12.75;76.39
80579;SHT31;69939;52.402;6.608;2024-01-30T13:08:11;12.72;76.02
80579;SHT31;69939;52.402;6.608;2024-01-30T13:10:41;12.80;76.50
80579;SHT31;69939;52.402;6.608;2024-01-30T13:13:10;12.67;76.58
80579;SHT31;69939;52.402;6.608;2024-01-30T13:15:43;12.55;76.72
80579;SHT31;69939;52.402;6.608;2024-01-30T13:18:12;12.79;76.20
80579;SHT31;69939;52.402;6.608;2024-01-30T13:20:41;13.06;76.01
80579;SHT31;69939;52.402;6.608;2024-01-30T13:23:11;13.17;76.26
80579;SHT31;69939;52.402;6.608;2024-01-30T13:25:46;12.90;77.47
80579;SHT31;69939;52.402;6.608;2024-01-30T13:28:16;12.50;77.63
80579;SHT31;69939;52.402;6.608;2024-01-30T13:30:45;12.25;78.08
80579;SHT31;69939;52.402;6.608;2024-01-30T13:33:15;12.24;78.98
80579;SHT31;69939;52.402;6.608;2024-01-30T13:35:41;12.28;79.45
80579;SHT31;69939;52.402;6.608;2024-01-30T13:38:11;12.20;79.90
80579;SHT31;69939;52.402;6.608;2024-01-30T13:40:41;11.93;79.61
80579;SHT31;69939;52.402;6.608;2024-01-30T13:43:13;11.73;79.09
80579;SHT31;69939;52.402;6.608;2024-01-30T13:45:43;11.71;79.82
80579;SHT31;69939;52.402;6.608;2024-01-30T13:48:13;11.63;79.79
80579;SHT31;69939;52.402;6.608;2024-01-30T13:50:42;11.59;80.13
80579;SHT31;69939;52.402;6.608;2024-01-30T13:53:12;11.53;80.05
80579;SHT31;69939;52.402;6.608;2024-01-30T13:55:41;11.49;80.41
80579;SHT31;69939;52.402;6.608;2024-01-30T13:58:16;11.46;80.39
80579;SHT31;69939;52.402;6.608;2024-01-30T14:00:45;11.36;80.83
80579;SHT31;69939;52.402;6.608;2024-01-30T14:03:15;11.20;81.43
80579;SHT31;69939;52.402;6.608;2024-01-30T14:05:44;11.07;81.36
80579;SHT31;69939;52.402;6.608;2024-01-30T14:08:13;10.94;81.56
80579;SHT31;69939;52.402;6.608;2024-01-30T14:10:43;10.68;82.09
80579;SHT31;69939;52.402;6.608;2024-01-30T14:13:15;10.56;81.85
80579;SHT31;69939;52.402;6.608;2024-01-30T14:15:44;10.49;82.01
80579;SHT31;69939;52.402;6.608;2024-01-30T14:18:13;10.39;81.60
80579;SHT31;69939;52.402;6.608;2024-01-30T14:20:43;10.34;81.91
80579;SHT31;69939;52.402;6.608;2024-01-30T14:23:12;10.32;82.23
80579;SHT31;69939;52.402;6.608;2024-01-30T14:25:42;10.29;82.61
80579;SHT31;69939;52.402;6.608;2024-01-30T14:28:11;10.26;82.93
80579;SHT31;69939;52.402;6.608;2024-01-30T14:30:43;10.20;83.58
80579;SHT31;69939;52.402;6.608;2024-01-30T14:33:18;10.19;83.67
80579;SHT31;69939;52.402;6.608;2024-01-30T14:35:48;10.16;83.88
80579;SHT31;69939;52.402;6.608;2024-01-30T14:38:18;10.15;84.00
80579;SHT31;69939;52.402;6.608;2024-01-30T14:40:47;10.16;84.40
80579;SHT31;69939;52.402;6.608;2024-01-30T14:43:22;10.17;83.99
80579;SHT31;69939;52.402;6.608;2024-01-30T14:45:52;10.25;84.10
80579;SHT31;69939;52.402;6.608;2024-01-30T14:48:21;10.25;84.31
80579;SHT31;69939;52.402;6.608;2024-01-30T14:50:50;10.25;84.63
80579;SHT31;69939;52.402;6.608;2024-01-30T14:53:20;10.28;84.24
80579;SHT31;69939;52.402;6.608;2024-01-30T14:55:49;10.26;84.14
80579;SHT31;69939;52.402;6.608;2024-01-30T14:58:22;10.23;84.15
80579;SHT31;69939;52.402;6.608;2024-01-30T15:00:52;10.12;84.45
80579;SHT31;69939;52.402;6.608;2024-01-30T15:03:21;10.03;84.48
80579;SHT31;69939;52.402;6.608;2024-01-30T15:05:50;9.99;84.68
80579;SHT31;69939;52.402;6.608;2024-01-30T15:08:22;9.95;84.99
80579;SHT31;69939;52.402;6.608;2024-01-30T15:10:51;9.95;85.30
80579;SHT31;69939;52.402;6.608;2024-01-30T15:13:23;9.88;85.70
80579;SHT31;69939;52.402;6.608;2024-01-30T15:15:53;9.82;85.92
80579;SHT31;69939;52.402;6.608;2024-01-30T15:18:23;9.77;86.42
80579;SHT31;69939;52.402;6.608;2024-01-30T15:20:52;9.74;86.82
80579;SHT31;69939;52.402;6.608;2024-01-30T15:23:21;9.74;87.14
80579;SHT31;69939;52.402;6.608;2024-01-30T15:25:51;9.65;87.70
80579;SHT31;69939;52.402;6.608;2024-01-30T15:28:37;9.54;88.45
80579;SHT31;69939;52.402;6.608;2024-01-30T15:31:07;9.50;88.60
80579;SHT31;69939;52.402;6.608;2024-01-30T15:33:37;9.50;88.84
80579;SHT31;69939;52.402;6.608;2024-01-30T15:36:08;9.43;89.02
80579;SHT31;69939;52.402;6.608;2024-01-30T15:38:39;9.33;89.65
80579;SHT31;69939;52.402;6.608;2024-01-30T15:41:09;9.24;90.65
80579;SHT31;69939;52.402;6.608;2024-01-30T15:43:43;9.16;91.48
80579;SHT31;69939;52.402;6.608;2024-01-30T15:46:13;9.12;91.35
80579;SHT31;69939;52.402;6.608;2024-01-30T15:48:45;9.13;91.18
80579;SHT31;69939;52.402;6.608;2024-01-30T15:51:16;9.09;91.37
80579;SHT31;69939;52.402;6.608;2024-01-30T15:53:46;9.03;91.60
80579;SHT31;69939;52.402;6.608;2024-01-30T15:56:16;9.05;91.97
80579;SHT31;69939;52.402;6.608;2024-01-30T15:58:48;9.00;92.27
80579;SHT31;69939;52.402;6.608;2024-01-30T16:01:18;8.96;92.39
80579;SHT31;69939;52.402;6.608;2024-01-30T16:03:47;8.90;92.64
80579;SHT31;69939;52.402;6.608;2024-01-30T16:06:16;8.98;92.77
80579;SHT31;69939;52.402;6.608;2024-01-30T16:08:46;8.90;92.78
80579;SHT31;69939;52.402;6.608;2024-01-30T16:11:16;8.92;92.91
80579;SHT31;69939;52.402;6.608;2024-01-30T16:13:48;8.89;93.23
80579;SHT31;69939;52.402;6.608;2024-01-30T16:16:18;8.82;93.56
80579;SHT31;69939;52.402;6.608;2024-01-30T16:18:47;8.79;93.99
80579;SHT31;69939;52.402;6.608;2024-01-30T16:21:17;8.72;94.07
80579;SHT31;69939;52.402;6.608;2024-01-30T16:23:47;8.68;94.73
80579;SHT31;69939;52.402;6.608;2024-01-30T16:26:22;8.52;95.92
80579;SHT31;69939;52.402;6.608;2024-01-30T16:28:52;8.45;96.65
80579;SHT31;69939;52.402;6.608;2024-01-30T16:31:21;8.26;97.90
80579;SHT31;69939;52.402;6.608;2024-01-30T16:33:50;8.13;98.65
80579;SHT31;69939;52.402;6.608;2024-01-30T16:36:20;8.06;99.41
80579;SHT31;69939;52.402;6.608;2024-01-30T16:38:51;8.03;99.99
80579;SHT31;69939;52.402;6.608;2024-01-30T16:41:25;7.97;99.99
80579;SHT31;69939;52.402;6.608;2024-01-30T16:43:55;7.96;99.99
80579;SHT31;69939;52.402;6.608;2024-01-30T16:46:24;7.89;99.99
80579;SHT31;69939;52.402;6.608;2024-01-30T16:48:53;7.89;99.99
80579;SHT31;69939;52.402;6.608;2024-01-30T16:51:23;7.86;99.99
80579;SHT31;69939;52.402;6.608;2024-01-30T16:53:52;7.86;99.99
80579;SHT31;69939;52.402;6.608;2024-01-30T16:56:21;7.83;99.99
80579;SHT31;69939;52.402;6.608;2024-01-30T16:58:54;7.83;99.99
80579;SHT31;69939;52.402;6.608;2024-01-30T17:01:23;7.85;99.99
80579;SHT31;69939;52.402;6.608;2024-01-30T17:03:53;7.85;99.99
80579;SHT31;69939;52.402;6.608;2024-01-30T17:06:22;7.85;99.99
80579;SHT31;69939;52.402;6.608;2024-01-30T17:08:57;7.87;99.99
80579;SHT31;69939;52.402;6.608;2024-01-30T17:11:27;7.90;99.70
80579;SHT31;69939;52.402;6.608;2024-01-30T17:14:02;7.92;99.79
80579;SHT31;69939;52.402;6.608;2024-01-30T17:16:32;7.93;99.83